createdAt,value
2018-07-04T00:01:15.087Z,67.70
2018-07-04T00:07:01.352Z,67.80
2018-07-04T00:12:47.633Z,68.00
2018-07-04T00:18:34.099Z,68.40
2018-07-04T00:24:20.143Z,68.40
2018-07-04T00:30:06.466Z,69.00
2018-07-04T00:35:52.696Z,68.40
2018-07-04T00:41:39.097Z,68.60
2018-07-04T00:47:25.428Z,68.70
2018-07-04T00:53:11.979Z,69.00
2018-07-04T00:58:58.715Z,69.20
2018-07-04T01:04:45.294Z,69.40
2018-07-04T01:10:31.366Z,69.40
2018-07-04T01:16:17.747Z,69.60
2018-07-04T01:22:04.104Z,69.70
2018-07-04T01:27:50.365Z,69.80
2018-07-04T01:33:36.698Z,70.10
2018-07-04T01:39:23.011Z,70.10
2018-07-04T01:45:09.261Z,70.30
2018-07-04T01:50:55.306Z,70.50
2018-07-04T01:56:41.466Z,70.50
2018-07-04T02:02:27.675Z,70.60
2018-07-04T02:08:13.910Z,70.70
2018-07-04T02:14:00.173Z,71.00
2018-07-04T02:19:46.574Z,71.00
2018-07-04T02:25:32.685Z,71.10
2018-07-04T02:31:19.182Z,71.30
2018-07-04T02:37:06.644Z,71.40
2018-07-04T02:42:52.898Z,71.50
2018-07-04T02:48:39.147Z,71.80
2018-07-04T02:54:25.326Z,72.00
2018-07-04T03:00:11.629Z,72.10
2018-07-04T03:05:57.895Z,72.30
2018-07-04T03:11:45.242Z,72.30
2018-07-04T03:17:31.515Z,72.70
2018-07-04T03:23:17.644Z,72.70
2018-07-04T03:29:03.850Z,72.90
2018-07-04T03:34:50.042Z,73.20
2018-07-04T03:40:36.361Z,73.00
2018-07-04T03:46:22.587Z,73.10
2018-07-04T03:52:08.742Z,73.10
2018-07-04T03:57:54.974Z,73.20
2018-07-04T04:03:41.217Z,73.10
2018-07-04T04:09:27.562Z,73.00
2018-07-04T04:15:13.545Z,73.00
2018-07-04T04:21:00.999Z,72.90
2018-07-04T04:26:47.114Z,72.80
2018-07-04T04:32:33.292Z,72.90
2018-07-04T04:38:19.502Z,72.60
2018-07-04T04:44:09.773Z,72.30
2018-07-04T04:49:55.961Z,72.30
2018-07-04T04:55:42.189Z,72.00
2018-07-04T05:01:28.396Z,71.90
2018-07-04T05:07:14.764Z,71.60
2018-07-04T05:13:00.941Z,71.50
2018-07-04T05:18:47.176Z,71.30
2018-07-04T05:24:33.412Z,71.00
2018-07-04T05:30:19.484Z,70.60
2018-07-04T05:36:05.785Z,70.60
2018-07-04T05:41:51.842Z,70.40
2018-07-04T05:47:38.007Z,70.20
2018-07-04T05:53:24.079Z,69.90
2018-07-04T05:59:10.317Z,70.00
2018-07-04T06:04:56.562Z,69.80
2018-07-04T06:10:42.846Z,69.40
2018-07-04T06:16:28.941Z,69.00
2018-07-04T06:22:15.280Z,68.10
2018-07-04T06:28:01.565Z,67.30
2018-07-04T06:33:49.085Z,66.90
2018-07-04T06:39:16.716Z,66.60
2018-07-04T06:44:44.553Z,66.50
2018-07-04T06:50:12.139Z,66.50
2018-07-04T06:55:39.760Z,65.90
2018-07-04T07:01:07.578Z,65.60
2018-07-04T07:06:53.859Z,65.40
2018-07-04T07:12:40.024Z,65.30
2018-07-04T07:18:26.099Z,65.20
2018-07-04T07:24:12.485Z,65.10
2018-07-04T07:29:58.612Z,64.90
2018-07-04T07:35:44.719Z,64.60
2018-07-04T07:41:30.841Z,64.00
2018-07-04T07:47:16.989Z,63.50
2018-07-04T07:53:03.270Z,62.80
2018-07-04T07:58:49.508Z,63.00
2018-07-04T08:04:35.566Z,62.10
2018-07-04T08:10:21.789Z,61.60
2018-07-04T08:16:07.991Z,61.10
2018-07-04T08:21:54.056Z,60.10
2018-07-04T08:27:40.392Z,60.20
2018-07-04T08:33:26.415Z,59.20
2018-07-04T08:39:12.715Z,58.80
2018-07-04T08:44:59.101Z,59.10
2018-07-04T08:50:45.667Z,59.20
2018-07-04T08:56:31.625Z,58.70
2018-07-04T09:02:17.978Z,58.70
2018-07-04T09:08:04.114Z,58.40
2018-07-04T09:13:50.405Z,58.90
2018-07-04T09:19:36.487Z,57.70
2018-07-04T09:25:22.497Z,56.40
2018-07-04T09:31:08.830Z,55.30
2018-07-04T09:36:54.908Z,55.20
2018-07-04T09:42:40.874Z,54.00
2018-07-04T09:48:27.186Z,54.40
2018-07-04T09:54:13.353Z,54.10
2018-07-04T09:59:59.731Z,54.40
2018-07-04T10:05:46.147Z,55.30
2018-07-04T10:11:32.382Z,54.00
2018-07-04T10:17:18.582Z,53.30
2018-07-04T10:23:04.769Z,52.80
2018-07-04T10:28:51.076Z,51.30
2018-07-04T10:34:38.051Z,51.70
2018-07-04T10:40:24.355Z,50.40
2018-07-04T10:46:10.636Z,50.10
2018-07-04T10:51:56.980Z,49.40
2018-07-04T10:57:45.672Z,49.60
2018-07-04T11:03:31.742Z,47.90
2018-07-04T11:09:17.935Z,48.10
2018-07-04T11:15:04.009Z,48.40
2018-07-04T11:20:50.300Z,48.30
2018-07-04T11:26:36.764Z,48.20
2018-07-04T11:32:22.975Z,48.10
2018-07-04T11:38:09.142Z,48.00
2018-07-04T11:43:55.874Z,48.70
2018-07-04T11:49:23.509Z,47.60
2018-07-04T11:54:51.295Z,46.90
2018-07-04T12:00:18.900Z,46.20
2018-07-04T12:06:05.205Z,46.30
2018-07-04T12:11:32.819Z,44.60
2018-07-04T12:17:00.734Z,44.10
2018-07-04T12:22:28.367Z,44.20
2018-07-04T12:27:56.135Z,43.60
2018-07-04T12:33:23.802Z,43.90
2018-07-04T12:38:51.425Z,43.00
2018-07-04T12:44:19.056Z,43.60
2018-07-04T12:49:46.868Z,45.00
2018-07-04T12:55:37.201Z,46.40
2018-07-04T13:01:23.369Z,47.30
2018-07-04T13:07:09.687Z,45.50
2018-07-04T13:12:55.901Z,46.50
2018-07-04T13:18:42.212Z,46.50
2018-07-04T13:24:28.415Z,46.80
2018-07-04T13:30:14.536Z,47.50
2018-07-04T13:36:00.726Z,47.60
2018-07-04T13:41:47.072Z,47.60
2018-07-04T13:47:33.265Z,48.30
2018-07-04T13:53:19.605Z,49.40
2018-07-04T13:59:06.164Z,50.20
2018-07-04T14:10:32.819Z,51.10
2018-07-04T14:16:19.060Z,50.80
2018-07-04T14:22:05.043Z,50.00
2018-07-04T14:27:51.162Z,49.60
2018-07-04T14:33:37.595Z,47.60
2018-07-04T14:39:23.825Z,47.70
2018-07-04T14:45:10.268Z,47.30
2018-07-04T14:50:56.566Z,46.90
2018-07-04T14:56:42.977Z,46.30
2018-07-04T15:02:29.039Z,46.50
2018-07-04T15:08:15.417Z,46.40
2018-07-04T15:14:01.692Z,46.40
2018-07-04T15:19:47.732Z,46.10
2018-07-04T15:25:34.163Z,45.80
2018-07-04T15:31:20.246Z,45.30
2018-07-04T15:37:06.441Z,45.90
2018-07-04T15:42:52.599Z,46.10
2018-07-04T15:48:38.865Z,46.90
2018-07-04T15:54:25.016Z,47.00
2018-07-04T16:00:11.257Z,47.60
2018-07-04T16:05:57.484Z,47.30
2018-07-04T16:11:43.685Z,46.90
2018-07-04T16:17:29.821Z,45.90
2018-07-04T16:23:16.113Z,45.90
2018-07-04T16:29:02.191Z,46.50
2018-07-04T16:34:48.468Z,46.60
2018-07-04T16:40:34.917Z,46.30
2018-07-04T16:46:21.195Z,47.20
2018-07-04T16:52:07.313Z,46.40
2018-07-04T16:57:55.661Z,46.60
2018-07-04T17:03:41.902Z,46.70
2018-07-04T17:09:28.084Z,46.80
2018-07-04T17:15:15.337Z,46.90
2018-07-04T17:21:01.755Z,47.50
2018-07-04T17:26:48.251Z,47.40
2018-07-04T17:32:34.642Z,48.20
2018-07-04T17:38:20.751Z,48.00
2018-07-04T17:44:06.890Z,48.20
2018-07-04T17:49:53.017Z,48.60
2018-07-04T17:55:41.382Z,49.30
2018-07-04T18:01:29.082Z,49.70
2018-07-04T18:07:15.346Z,50.00
2018-07-04T18:13:01.472Z,50.00
2018-07-04T18:18:47.531Z,50.10
2018-07-04T18:24:33.716Z,50.60
2018-07-04T18:30:19.858Z,50.70
2018-07-04T18:36:06.208Z,51.00
2018-07-04T18:41:52.447Z,50.90
2018-07-04T18:47:38.557Z,51.00
2018-07-04T18:53:24.708Z,51.20
2018-07-04T18:59:10.926Z,50.90
2018-07-04T19:04:57.103Z,51.30
2018-07-04T19:10:45.879Z,51.70
2018-07-04T19:16:34.140Z,51.50
2018-07-04T19:22:20.604Z,51.60
2018-07-04T19:28:08.899Z,52.30
2018-07-04T19:33:55.709Z,52.20
2018-07-04T19:39:42.053Z,52.20
2018-07-04T19:45:28.345Z,52.50
2018-07-04T19:51:14.818Z,52.70
2018-07-04T19:57:01.154Z,53.00
2018-07-04T20:02:47.549Z,53.30
2018-07-04T20:08:34.099Z,53.50
2018-07-04T20:14:20.495Z,54.30
2018-07-04T20:20:06.656Z,54.20
2018-07-04T20:25:53.297Z,54.50
2018-07-04T20:31:40.615Z,54.80
2018-07-04T20:37:27.741Z,54.90
2018-07-04T20:43:13.996Z,55.10
2018-07-04T20:49:00.276Z,55.30
2018-07-04T20:54:46.562Z,55.60
2018-07-04T21:00:32.901Z,56.20
2018-07-04T21:06:19.279Z,56.40
2018-07-04T21:12:05.659Z,56.60
2018-07-04T21:17:51.877Z,56.90
2018-07-04T21:23:38.321Z,57.30
2018-07-04T21:29:24.674Z,57.70
2018-07-04T21:35:10.886Z,57.90
2018-07-04T21:40:57.143Z,58.10
2018-07-04T21:46:43.489Z,58.30
2018-07-04T21:52:29.828Z,58.60
2018-07-04T21:58:16.215Z,59.00
2018-07-04T22:04:02.334Z,59.30
2018-07-04T22:09:48.607Z,62.50
2018-07-04T22:15:34.960Z,61.00
2018-07-04T22:21:21.237Z,61.00
2018-07-04T22:27:07.703Z,61.20
2018-07-04T22:32:53.924Z,61.50
2018-07-04T22:38:40.118Z,61.80
2018-07-04T22:44:26.278Z,61.90
2018-07-04T22:50:12.384Z,62.30
2018-07-04T22:55:58.672Z,62.60
2018-07-04T23:01:44.835Z,62.80
2018-07-04T23:07:31.084Z,63.20
2018-07-04T23:13:17.387Z,63.50
2018-07-04T23:19:03.634Z,63.80
2018-07-04T23:24:49.787Z,64.00
2018-07-04T23:30:35.860Z,64.10
2018-07-04T23:36:22.205Z,64.30
2018-07-04T23:42:08.655Z,64.40
2018-07-04T23:47:54.869Z,64.60
2018-07-04T23:53:41.153Z,64.70
2018-07-04T23:59:27.396Z,64.80
